Terminal Aerodrome Forecast
Issued by NWS Cleveland, OH

Home | Current Version | Previous Version | Text Only | Print | Product List | Glossary On
Versions: 1 2 3 4 5 6 7 8 9 10 11 12 13 14 15 16 17 18 19 20 21 22 23 24
000
FTUS41 KCLE 231700
TAFERI
TAF
KERI 231740Z 2318/2418 04010KT P6SM BKN015
     FM232100 04008KT P6SM SCT025
     FM240500 12005KT 6SM BR SCT006
     FM240900 14005KT 4SM BR SCT006
     FM241400 14008KT P6SM SCT015
     FM241600 06008KT P6SM SCT035=

USA.gov is the U.S. government's official web portal to all federal, state and local government web resources and services.